Terminal Aerodrome Forecast
Issued by NWS

Home | Current Version | Previous Version | Text Only | Print | Product List | Glossary On
Versions: 1 2 3 4 5 6 7 8 9 10 11 12 13 14 15 16 17 18 19 20
000
FTUS46 KSEW 161100
TAFSEA
TAF
KSEA 161120Z 1612/1718 20008KT P6SM SCT005 BKN120 BKN200
      TEMPO 1612/1614 5SM BR BKN005 BKN120
     FM161400 20008KT P6SM BKN010 BKN120
     FM161700 21007KT P6SM SCT020 BKN120
     FM161900 24007KT P6SM SCT040 BKN120
     FM171000 18008KT P6SM BKN015=

USA.gov is the U.S. government's official web portal to all federal, state and local government web resources and services.